EDLN/MGL METAR and TAF weather

Enter ICAO airport designator
Station Type Date Time Source
EDLN METAR 2019/12/13 01:20 UTC NOAA

EDLN 130120Z AUTO 14013KT 110V170 9999 // OVC032/// 04/M00 Q0980


Station Type Date Time Source
EDLN Decoded METAR 2019/12/13 01:20 UTC NOAA

Monchengladbach, Germany (EDLN) 51-13-49N 006-30-16E
Dec 12, 2019 - 08:20 PM EST / 2019.12.13 0120 UTC
Wind: from the SE (140 degrees) at 15 MPH (13 KT) (direction variable):0
Visibility: greater than 7 mile(s):0
Sky conditions: overcast
Temperature: 39 F (4 C)
Dew Point: 32 F (0 C)
Relative Humidity: 75%
Pressure (altimeter): 28.94 in. Hg (0980 hPa)
ob: EDLN 130120Z AUTO 14013KT 110V170 9999 // OVC032/// 04/M00 Q0980
cycle: 1

Station Type Date Time Source
EDLN TAF 2010/02/22 14:20 UTC NOAA

METAR EDLN 221420Z 18010G20KT 090V240 9999 SCT030 BKN045 11/06 Q0986
RMK ATIS R=

Example: see airport list